createdAt,value
2022-08-01T00:00:51.729Z,20.10
2022-08-01T00:03:19.612Z,20.10
2022-08-01T00:05:47.653Z,20.10
2022-08-01T00:08:15.505Z,20.10
2022-08-01T00:10:43.441Z,20.10
2022-08-01T00:13:11.292Z,20.20
2022-08-01T00:15:39.169Z,20.20
2022-08-01T00:18:08.393Z,20.20
2022-08-01T00:20:36.260Z,20.20
2022-08-01T00:23:04.564Z,20.30
2022-08-01T00:25:33.468Z,20.20
2022-08-01T00:28:04.093Z,20.20
2022-08-01T00:30:32.641Z,20.10
2022-08-01T00:33:00.485Z,20.10
2022-08-01T00:35:29.708Z,20.10
2022-08-01T00:37:57.601Z,20.00
2022-08-01T00:40:25.501Z,20.00
2022-08-01T00:42:53.381Z,20.00
2022-08-01T00:45:21.243Z,19.90
2022-08-01T00:47:49.113Z,19.90
2022-08-01T00:50:24.807Z,20.00
2022-08-01T00:52:54.251Z,19.90
2022-08-01T00:55:22.250Z,19.90
2022-08-01T00:58:05.542Z,20.00
2022-08-01T01:00:52.456Z,19.90
2022-08-01T01:03:23.899Z,19.90
2022-08-01T01:06:04.020Z,19.90
2022-08-01T01:08:37.761Z,19.80
2022-08-01T01:11:11.449Z,19.70
2022-08-01T01:13:48.595Z,19.70
2022-08-01T01:16:19.569Z,19.80
2022-08-01T01:18:48.757Z,19.90
2022-08-01T01:21:34.916Z,19.90
2022-08-01T01:24:09.537Z,19.90
2022-08-01T01:26:41.187Z,19.90
2022-08-01T01:29:13.745Z,20.00
2022-08-01T01:31:45.210Z,20.00
2022-08-01T01:34:14.670Z,20.00
2022-08-01T01:36:42.789Z,19.90
2022-08-01T01:39:10.691Z,19.70
2022-08-01T01:41:39.241Z,19.80
2022-08-01T01:44:07.268Z,19.90
2022-08-01T01:46:36.528Z,19.90
2022-08-01T01:49:04.555Z,19.90
2022-08-01T01:51:32.444Z,19.90
2022-08-01T01:54:00.366Z,19.70
2022-08-01T01:56:28.312Z,19.50
2022-08-01T01:58:58.600Z,19.50
2022-08-01T02:01:58.059Z,19.40
2022-08-01T02:04:17.666Z,19.40
2022-08-01T02:06:46.104Z,19.30
2022-08-01T02:09:13.925Z,19.30
2022-08-01T02:12:08.215Z,19.40
2022-08-01T02:14:29.535Z,19.40
2022-08-01T02:16:58.695Z,19.40
2022-08-01T02:19:28.169Z,19.40
2022-08-01T02:21:58.187Z,19.40
2022-08-01T02:24:37.733Z,19.40
2022-08-01T02:27:08.754Z,19.50
2022-08-01T02:29:39.900Z,19.50
2022-08-01T02:32:08.593Z,19.50
2022-08-01T02:34:37.918Z,19.50
2022-08-01T02:37:05.820Z,19.50
2022-08-01T02:39:33.719Z,19.50
2022-08-01T02:42:05.037Z,19.60
2022-08-01T02:44:35.158Z,19.50
2022-08-01T02:47:04.204Z,19.50
2022-08-01T02:49:33.810Z,19.60
2022-08-01T02:52:04.075Z,19.60
2022-08-01T02:54:32.351Z,19.60
2022-08-01T02:57:01.341Z,19.50
2022-08-01T02:59:30.750Z,19.50
2022-08-01T03:01:58.946Z,19.60
2022-08-01T03:04:28.605Z,19.60
2022-08-01T03:06:59.302Z,19.60
2022-08-01T03:09:28.723Z,19.60
2022-08-01T03:11:56.932Z,19.60
2022-08-01T03:14:24.895Z,19.60
2022-08-01T03:16:53.540Z,19.70
2022-08-01T03:19:21.398Z,19.70
2022-08-01T03:21:49.197Z,19.70
2022-08-01T03:24:17.002Z,19.60
2022-08-01T03:26:46.190Z,19.70
2022-08-01T03:29:16.229Z,19.70
2022-08-01T03:31:44.445Z,19.60
2022-08-01T03:34:12.368Z,19.70
2022-08-01T03:36:47.528Z,19.60
2022-08-01T03:39:18.511Z,19.60
2022-08-01T03:41:56.234Z,19.60
2022-08-01T03:44:26.689Z,19.60
2022-08-01T03:46:56.504Z,19.50
2022-08-01T03:49:26.344Z,19.50
2022-08-01T03:51:54.507Z,19.50
2022-08-01T03:54:23.431Z,19.50
2022-08-01T03:56:53.579Z,19.40
2022-08-01T03:59:21.836Z,19.50
2022-08-01T04:01:50.109Z,19.40
2022-08-01T04:04:18.305Z,19.40
2022-08-01T04:06:46.541Z,19.40
2022-08-01T04:09:14.658Z,19.40
2022-08-01T04:11:43.214Z,19.40
2022-08-01T04:14:12.850Z,19.40
2022-08-01T04:16:40.941Z,19.40
2022-08-01T04:19:12.709Z,19.30
2022-08-01T04:21:40.865Z,19.30
2022-08-01T04:24:11.223Z,19.30
2022-08-01T04:30:30.853Z,19.30
2022-08-01T04:33:00.141Z,19.30
2022-08-01T04:36:01.582Z,19.30
2022-08-01T04:38:19.189Z,19.30
2022-08-01T04:40:47.672Z,19.20
2022-08-01T04:43:15.837Z,19.20
2022-08-01T04:45:45.721Z,19.20
2022-08-01T04:48:13.731Z,19.30
2022-08-01T04:50:43.014Z,19.30
2022-08-01T04:53:15.352Z,19.30
2022-08-01T04:55:43.402Z,19.30
2022-08-01T04:58:13.268Z,19.30
2022-08-01T05:00:45.777Z,19.30
2022-08-01T05:03:13.776Z,19.40
2022-08-01T05:05:41.908Z,19.40
2022-08-01T05:08:10.155Z,19.40
2022-08-01T05:10:38.222Z,19.30
2022-08-01T05:13:07.601Z,19.40
2022-08-01T05:19:18.345Z,19.40
2022-08-01T05:21:46.568Z,19.40
2022-08-01T05:24:14.927Z,19.50
2022-08-01T05:26:44.590Z,19.50
2022-08-01T05:29:12.510Z,19.50
2022-08-01T05:31:40.479Z,19.50
2022-08-01T05:34:15.279Z,19.60
2022-08-01T05:36:44.843Z,19.50
2022-08-01T05:39:13.210Z,19.60
2022-08-01T05:41:41.366Z,19.60
2022-08-01T05:44:09.366Z,19.70
2022-08-01T05:46:37.609Z,19.70
2022-08-01T05:49:06.407Z,19.60
2022-08-01T05:51:34.643Z,19.60
2022-08-01T05:54:04.643Z,19.60
2022-08-01T05:56:32.716Z,19.60
2022-08-01T05:59:00.681Z,19.70
2022-08-01T06:01:28.561Z,19.70
2022-08-01T06:03:56.517Z,19.80
2022-08-01T06:06:25.548Z,19.80
2022-08-01T06:08:53.907Z,19.90
2022-08-01T06:11:23.186Z,20.00
2022-08-01T06:13:51.240Z,20.00
2022-08-01T06:16:19.217Z,20.10
2022-08-01T06:18:47.417Z,20.10
2022-08-01T06:21:15.419Z,20.10
2022-08-01T06:23:43.615Z,20.10
2022-08-01T06:26:11.753Z,20.10
2022-08-01T06:28:41.142Z,20.10
2022-08-01T06:31:10.842Z,20.20
2022-08-01T06:33:38.824Z,20.20
2022-08-01T06:36:06.863Z,20.20
2022-08-01T06:38:34.820Z,20.30
2022-08-01T06:41:03.297Z,20.40
2022-08-01T06:43:47.850Z,20.50
2022-08-01T06:46:15.709Z,20.50
2022-08-01T06:48:43.712Z,20.60
2022-08-01T06:51:14.659Z,20.60
2022-08-01T06:53:43.872Z,20.60
2022-08-01T06:56:12.154Z,20.60
2022-08-01T06:58:40.123Z,20.70
2022-08-01T07:01:09.609Z,20.70
2022-08-01T07:03:52.240Z,20.80
2022-08-01T07:06:23.619Z,20.80
2022-08-01T07:08:51.600Z,20.90
2022-08-01T07:11:19.526Z,21.00
2022-08-01T07:13:47.528Z,21.10
2022-08-01T07:16:17.072Z,21.20
2022-08-01T07:18:45.076Z,21.20
2022-08-01T07:21:38.349Z,21.30
2022-08-01T07:24:01.243Z,21.30
2022-08-01T07:26:29.372Z,21.30
2022-08-01T07:28:57.374Z,21.50
2022-08-01T07:31:30.587Z,21.70
2022-08-01T07:34:00.178Z,21.90
2022-08-01T07:36:28.096Z,22.30
2022-08-01T07:38:56.032Z,22.80
2022-08-01T07:41:53.561Z,23.10
2022-08-01T07:44:11.945Z,23.60
2022-08-01T07:50:21.945Z,24.30
2022-08-01T07:53:41.171Z,24.80
2022-08-01T07:56:09.075Z,25.00
2022-08-01T07:58:36.937Z,25.40
2022-08-01T08:01:04.924Z,25.60
2022-08-01T08:03:32.772Z,25.70
2022-08-01T08:06:02.003Z,25.60
2022-08-01T08:08:29.919Z,25.50
2022-08-01T08:10:58.077Z,25.40
2022-08-01T08:13:25.947Z,25.60
2022-08-01T08:15:53.817Z,25.80
2022-08-01T08:18:21.657Z,26.00
2022-08-01T08:20:50.191Z,26.30
2022-08-01T08:23:42.982Z,26.30
2022-08-01T08:26:11.657Z,26.40
2022-08-01T08:28:40.663Z,26.50
2022-08-01T08:31:25.165Z,26.30
2022-08-01T08:33:56.827Z,26.10
2022-08-01T08:36:31.017Z,26.10
2022-08-01T08:39:01.437Z,26.30
2022-08-01T08:41:37.719Z,26.80
2022-08-01T08:44:06.846Z,27.00
2022-08-01T08:46:42.096Z,27.20
2022-08-01T08:49:10.473Z,27.50
2022-08-01T08:51:40.402Z,28.00
2022-08-01T08:54:09.639Z,28.00
2022-08-01T08:56:37.624Z,28.00
2022-08-01T08:59:05.724Z,28.00
2022-08-01T09:01:35.891Z,28.20
2022-08-01T09:04:04.276Z,28.00
2022-08-01T09:06:32.144Z,28.00
2022-08-01T09:09:00.060Z,28.30
2022-08-01T09:11:29.276Z,28.10
2022-08-01T09:14:16.248Z,28.20
2022-08-01T09:16:48.575Z,28.70
2022-08-01T09:19:39.811Z,28.70
2022-08-01T09:22:07.094Z,29.00
2022-08-01T09:24:35.199Z,29.00
2022-08-01T09:27:16.930Z,28.90
2022-08-01T09:29:45.577Z,28.90
2022-08-01T09:32:17.825Z,28.50
2022-08-01T09:34:47.224Z,28.70
2022-08-01T09:37:18.227Z,28.50
2022-08-01T09:39:58.753Z,28.60
2022-08-01T09:42:29.497Z,28.40
2022-08-01T09:44:57.495Z,28.10
2022-08-01T09:47:25.856Z,28.20
2022-08-01T09:49:56.283Z,27.70
2022-08-01T09:52:29.334Z,27.40
2022-08-01T09:54:58.299Z,27.90
2022-08-01T09:57:27.627Z,28.00
2022-08-01T09:59:59.175Z,28.50
2022-08-01T10:02:31.263Z,28.20
2022-08-01T10:05:03.693Z,28.10
2022-08-01T10:07:42.992Z,28.20
2022-08-01T10:10:12.891Z,28.30
2022-08-01T10:12:45.535Z,28.50
2022-08-01T10:15:14.501Z,28.20
2022-08-01T10:17:50.660Z,28.30
2022-08-01T10:20:28.862Z,28.70
2022-08-01T10:23:00.632Z,28.60
2022-08-01T10:25:43.157Z,28.10
2022-08-01T10:28:18.235Z,28.40
2022-08-01T10:30:49.969Z,28.70
2022-08-01T10:33:49.660Z,29.00
2022-08-01T10:36:08.596Z,29.10
2022-08-01T10:38:37.290Z,29.40
2022-08-01T10:41:06.376Z,29.60
2022-08-01T10:43:36.402Z,29.60
2022-08-01T10:46:04.553Z,29.60
2022-08-01T10:48:36.306Z,29.80
2022-08-01T10:51:17.878Z,29.90
2022-08-01T10:53:50.209Z,29.70
2022-08-01T10:56:22.644Z,29.70
2022-08-01T10:59:06.811Z,29.70
2022-08-01T11:01:44.954Z,29.80
2022-08-01T11:04:17.009Z,30.00
2022-08-01T11:06:56.690Z,30.00
2022-08-01T11:09:37.472Z,30.20
2022-08-01T11:12:13.429Z,30.10
2022-08-01T11:15:30.110Z,30.40
2022-08-01T11:18:01.395Z,30.10
2022-08-01T11:20:31.251Z,30.20
2022-08-01T11:23:29.762Z,30.10
2022-08-01T11:26:29.104Z,30.30
2022-08-01T11:29:21.166Z,30.10
2022-08-01T11:31:50.176Z,30.40
2022-08-01T11:34:19.710Z,30.30
2022-08-01T11:37:03.399Z,30.20
2022-08-01T11:39:34.317Z,30.40
2022-08-01T11:42:20.642Z,30.40
2022-08-01T11:44:52.174Z,30.30
2022-08-01T11:47:21.214Z,30.40
2022-08-01T11:49:56.318Z,30.50
2022-08-01T11:52:28.115Z,30.60
2022-08-01T11:54:57.070Z,30.40
2022-08-01T11:57:34.851Z,30.10
2022-08-01T12:00:07.095Z,30.10
2022-08-01T12:02:36.842Z,30.40
2022-08-01T12:05:08.449Z,30.00
2022-08-01T12:07:38.838Z,30.20
2022-08-01T12:10:07.968Z,30.10
2022-08-01T12:12:36.913Z,30.20
2022-08-01T12:15:06.301Z,30.50
2022-08-01T12:17:38.806Z,30.30
2022-08-01T12:20:10.432Z,30.60
2022-08-01T12:22:38.479Z,30.60
2022-08-01T12:25:10.857Z,30.50
2022-08-01T12:27:38.924Z,30.40
2022-08-01T12:30:09.105Z,30.40
2022-08-01T12:32:37.682Z,30.50
2022-08-01T12:35:06.661Z,30.50
2022-08-01T12:37:37.086Z,30.80
2022-08-01T12:40:12.571Z,30.90
2022-08-01T12:42:41.520Z,30.80
2022-08-01T12:45:10.871Z,30.80
2022-08-01T12:47:39.151Z,30.70
2022-08-01T12:50:08.342Z,30.60
2022-08-01T12:52:37.659Z,30.70
2022-08-01T12:55:09.609Z,30.80
2022-08-01T12:57:38.950Z,30.70
2022-08-01T13:00:08.722Z,30.60
2022-08-01T13:02:36.828Z,30.70
2022-08-01T13:05:05.185Z,30.70
2022-08-01T13:07:45.876Z,30.40
2022-08-01T13:10:14.497Z,30.20
2022-08-01T13:12:43.279Z,30.40
2022-08-01T13:15:26.200Z,30.40
2022-08-01T13:17:54.198Z,30.20
2022-08-01T13:20:26.572Z,30.40
2022-08-01T13:22:55.834Z,30.30
2022-08-01T13:25:26.056Z,29.80
2022-08-01T13:28:16.202Z,30.20
2022-08-01T13:30:56.014Z,30.10
2022-08-01T13:33:24.177Z,30.20
2022-08-01T13:35:53.744Z,30.20
2022-08-01T13:38:43.959Z,30.40
2022-08-01T13:41:11.828Z,30.40
2022-08-01T13:43:58.641Z,30.30
2022-08-01T13:46:29.669Z,30.50
2022-08-01T13:48:57.616Z,30.50
2022-08-01T13:51:33.085Z,30.60
2022-08-01T13:54:02.264Z,30.10
2022-08-01T13:56:30.249Z,29.90
2022-08-01T13:58:58.225Z,29.80
2022-08-01T14:01:29.882Z,30.00
2022-08-01T14:04:00.214Z,30.20
2022-08-01T14:06:28.067Z,30.20
2022-08-01T14:08:55.905Z,30.20
2022-08-01T14:11:25.479Z,30.20
2022-08-01T14:13:58.221Z,30.20
2022-08-01T14:16:26.063Z,30.00
2022-08-01T14:18:53.890Z,30.20
2022-08-01T14:21:21.725Z,29.90
2022-08-01T14:23:49.549Z,30.00
2022-08-01T14:26:17.420Z,29.90
2022-08-01T14:28:46.629Z,29.80
2022-08-01T14:31:14.483Z,29.90
2022-08-01T14:33:42.309Z,29.70
2022-08-01T14:36:29.282Z,29.70
2022-08-01T14:39:00.331Z,29.60
2022-08-01T14:41:28.729Z,29.60
2022-08-01T14:44:00.817Z,29.60
2022-08-01T14:46:28.691Z,29.60
2022-08-01T14:48:59.571Z,29.60
2022-08-01T14:51:27.431Z,29.40
2022-08-01T14:53:55.267Z,29.30
2022-08-01T14:56:23.112Z,29.20
2022-08-01T14:58:50.932Z,29.00
2022-08-01T15:01:20.207Z,28.90
2022-08-01T15:03:48.976Z,29.10
2022-08-01T15:06:16.895Z,29.10
2022-08-01T15:08:45.136Z,29.00
2022-08-01T15:11:13.017Z,28.80
2022-08-01T15:13:42.821Z,28.80
2022-08-01T15:16:13.060Z,28.90
2022-08-01T15:18:43.004Z,28.90
2022-08-01T15:21:17.277Z,28.60
2022-08-01T15:23:52.950Z,28.50
2022-08-01T15:26:20.804Z,28.50
2022-08-01T15:28:48.620Z,28.40
2022-08-01T15:31:16.469Z,28.30
2022-08-01T15:33:45.647Z,27.90
2022-08-01T15:36:15.354Z,27.50
2022-08-01T15:38:43.368Z,27.80
2022-08-01T15:41:11.192Z,27.70
2022-08-01T15:43:41.900Z,27.60
2022-08-01T15:46:12.126Z,27.50
2022-08-01T15:48:40.285Z,27.20
2022-08-01T15:51:09.658Z,27.00
2022-08-01T15:53:37.493Z,26.90
2022-08-01T15:56:06.102Z,26.70
2022-08-01T15:58:33.943Z,26.60
2022-08-01T16:01:01.829Z,26.30
2022-08-01T16:03:29.715Z,26.40
2022-08-01T16:05:57.560Z,26.30
2022-08-01T16:08:26.801Z,26.40
2022-08-01T16:10:54.681Z,26.00
2022-08-01T16:13:22.519Z,26.00
2022-08-01T16:15:50.365Z,25.60
2022-08-01T16:18:18.298Z,25.50
2022-08-01T16:20:46.384Z,25.50
2022-08-01T16:23:14.588Z,25.40
2022-08-01T16:25:44.548Z,25.30
2022-08-01T16:28:12.565Z,25.20
2022-08-01T16:30:41.613Z,25.30
2022-08-01T16:33:45.704Z,25.40
2022-08-01T16:36:06.789Z,25.60
2022-08-01T16:38:34.673Z,25.50
2022-08-01T16:41:03.888Z,25.50
2022-08-01T16:43:53.405Z,25.50
2022-08-01T16:46:23.101Z,25.50
2022-08-01T16:48:50.991Z,25.50
2022-08-01T16:51:19.911Z,25.20
2022-08-01T16:53:47.776Z,25.00
2022-08-01T16:56:17.050Z,24.90
2022-08-01T16:58:45.148Z,24.90
2022-08-01T17:01:58.758Z,25.00
2022-08-01T17:04:01.808Z,25.00
2022-08-01T17:06:29.880Z,25.00
2022-08-01T17:08:57.754Z,24.80
2022-08-01T17:11:26.967Z,24.90
2022-08-01T17:13:54.778Z,24.90
2022-08-01T17:16:22.761Z,24.70
2022-08-01T17:18:50.655Z,24.60
2022-08-01T17:21:18.479Z,24.50
2022-08-01T17:23:46.334Z,24.60
2022-08-01T17:26:14.192Z,24.60
2022-08-01T17:28:43.690Z,24.60
2022-08-01T17:31:11.703Z,24.50
2022-08-01T17:33:45.705Z,24.40
2022-08-01T17:36:14.898Z,24.30
2022-08-01T17:38:42.768Z,24.40
2022-08-01T17:41:10.633Z,24.40
2022-08-01T17:43:38.476Z,24.30
2022-08-01T17:46:08.156Z,24.30
2022-08-01T17:48:36.031Z,24.10
2022-08-01T17:51:03.915Z,24.10
2022-08-01T17:53:31.806Z,24.10
2022-08-01T17:56:01.507Z,24.00
2022-08-01T17:58:49.845Z,24.10
2022-08-01T18:01:19.038Z,24.00
2022-08-01T18:03:47.255Z,23.90
2022-08-01T18:06:17.412Z,23.90
2022-08-01T18:08:46.971Z,23.80
2022-08-01T18:11:15.714Z,23.70
2022-08-01T18:13:43.810Z,23.80
2022-08-01T18:16:13.091Z,23.90
2022-08-01T18:18:43.482Z,23.80
2022-08-01T18:21:12.073Z,23.70
2022-08-01T18:23:39.915Z,23.70
2022-08-01T18:26:09.423Z,23.80
2022-08-01T18:28:41.783Z,23.80
2022-08-01T18:31:16.461Z,23.70
2022-08-01T18:33:46.136Z,23.70
2022-08-01T18:36:20.289Z,23.60
2022-08-01T18:39:00.443Z,23.60
2022-08-01T18:41:29.794Z,23.50
2022-08-01T18:44:07.382Z,23.50
2022-08-01T18:46:37.240Z,23.60
2022-08-01T18:49:06.799Z,23.40
2022-08-01T18:51:35.653Z,23.30
2022-08-01T18:54:05.756Z,23.20
2022-08-01T18:56:33.588Z,23.20
2022-08-01T18:59:01.418Z,23.10
2022-08-01T19:01:29.314Z,23.10
2022-08-01T19:03:57.199Z,23.20
2022-08-01T19:06:27.145Z,23.20
2022-08-01T19:08:58.310Z,23.00
2022-08-01T19:11:29.480Z,23.00
2022-08-01T19:13:57.337Z,23.00
2022-08-01T19:16:25.178Z,23.10
2022-08-01T19:18:53.027Z,23.10
2022-08-01T19:21:22.342Z,23.00
2022-08-01T19:24:09.169Z,22.90
2022-08-01T19:26:39.031Z,22.80
2022-08-01T19:29:10.064Z,22.80
2022-08-01T19:31:40.529Z,22.70
2022-08-01T19:34:09.578Z,22.60
2022-08-01T19:36:37.451Z,22.50
2022-08-01T19:39:06.640Z,22.60
2022-08-01T19:41:34.739Z,22.40
2022-08-01T19:44:03.522Z,22.40
2022-08-01T19:46:31.478Z,22.30
2022-08-01T19:48:59.484Z,22.20
2022-08-01T19:51:33.827Z,22.30
2022-08-01T19:54:04.799Z,22.20
2022-08-01T19:56:39.694Z,22.10
2022-08-01T19:59:58.104Z,22.10
2022-08-01T20:02:25.887Z,22.10
2022-08-01T20:04:53.666Z,22.00
2022-08-01T20:07:21.508Z,21.90
2022-08-01T20:09:50.768Z,21.90
2022-08-01T20:12:23.795Z,21.90
2022-08-01T20:14:53.730Z,21.80
2022-08-01T20:17:21.851Z,21.80
2022-08-01T20:19:49.695Z,21.70
2022-08-01T20:22:19.414Z,21.70
2022-08-01T20:24:49.932Z,21.80
2022-08-01T20:27:18.558Z,21.80
2022-08-01T20:29:47.735Z,21.70
2022-08-01T20:32:15.543Z,21.40
2022-08-01T20:34:43.350Z,21.40
2022-08-01T20:37:13.082Z,21.30
2022-08-01T20:39:43.417Z,21.50
2022-08-01T20:42:12.198Z,21.40
2022-08-01T20:44:40.050Z,21.20
2022-08-01T20:47:09.553Z,21.10
2022-08-01T20:49:37.753Z,21.10
2022-08-01T20:52:11.121Z,21.00
2022-08-01T20:54:40.666Z,20.90
2022-08-01T20:57:12.782Z,21.00
2022-08-01T20:59:55.773Z,20.80
2022-08-01T21:02:31.955Z,20.80
2022-08-01T21:05:03.278Z,20.80
2022-08-01T21:07:34.244Z,20.70
2022-08-01T21:10:06.540Z,20.60
2022-08-01T21:12:43.620Z,20.60
2022-08-01T21:15:15.246Z,20.70
2022-08-01T21:17:46.844Z,20.60
2022-08-01T21:20:15.147Z,20.60
2022-08-01T21:22:48.773Z,20.60
2022-08-01T21:25:17.029Z,20.50
2022-08-01T21:27:44.867Z,20.50
2022-08-01T21:30:13.711Z,20.50
2022-08-01T21:32:41.895Z,20.30
2022-08-01T21:35:16.846Z,20.30
2022-08-01T21:37:51.911Z,20.20
2022-08-01T21:40:21.200Z,20.20
2022-08-01T21:42:49.535Z,20.20
2022-08-01T21:45:17.320Z,20.10
2022-08-01T21:47:46.275Z,20.10
2022-08-01T21:50:15.581Z,20.30
2022-08-01T21:52:44.807Z,20.20
2022-08-01T21:55:19.979Z,20.10
2022-08-01T21:57:56.994Z,20.10
2022-08-01T22:00:26.289Z,19.90
2022-08-01T22:02:59.229Z,19.90
2022-08-01T22:05:50.601Z,20.10
2022-08-01T22:08:18.603Z,20.20
2022-08-01T22:10:46.434Z,20.20
2022-08-01T22:13:14.620Z,20.10
2022-08-01T22:15:44.975Z,20.20
2022-08-01T22:18:13.374Z,20.00
2022-08-01T22:20:42.646Z,20.00
2022-08-01T22:23:10.449Z,20.00
2022-08-01T22:25:38.328Z,20.10
2022-08-01T22:28:09.299Z,20.10
2022-08-01T22:30:41.445Z,20.10
2022-08-01T22:33:16.458Z,20.10
2022-08-01T22:35:47.152Z,20.00
2022-08-01T22:38:15.004Z,20.20
2022-08-01T22:40:48.629Z,20.40
2022-08-01T22:43:21.718Z,20.30
2022-08-01T22:45:51.916Z,20.30
2022-08-01T22:48:20.732Z,20.20
2022-08-01T22:50:51.948Z,20.20
2022-08-01T22:53:24.245Z,20.20
2022-08-01T22:55:59.036Z,20.10
2022-08-01T22:58:27.644Z,20.20
2022-08-01T23:00:55.972Z,20.10
2022-08-01T23:03:27.070Z,19.90
2022-08-01T23:05:58.013Z,19.80
2022-08-01T23:08:25.863Z,19.90
2022-08-01T23:10:53.732Z,19.70
2022-08-01T23:13:21.533Z,19.90
2022-08-01T23:15:52.390Z,19.60
2022-08-01T23:18:20.555Z,19.60
2022-08-01T23:20:48.400Z,19.50
2022-08-01T23:23:18.026Z,19.60
2022-08-01T23:25:58.981Z,19.60
2022-08-01T23:28:26.836Z,19.50
2022-08-01T23:30:54.777Z,19.50
2022-08-01T23:33:22.767Z,19.10
2022-08-01T23:35:50.695Z,18.90
2022-08-01T23:38:20.309Z,18.70
2022-08-01T23:40:50.026Z,18.50
2022-08-01T23:43:18.229Z,18.30
2022-08-01T23:46:03.350Z,18.30
2022-08-01T23:48:33.737Z,18.30
2022-08-01T23:51:01.615Z,18.30
2022-08-01T23:53:31.543Z,18.20
2022-08-01T23:56:01.146Z,18.10
2022-08-01T23:58:30.746Z,18.00
